Darstellungsparameter: Aktuell verwendete Einstellungen:
Skalierung der Graphiken ... ?
xyx+y,   Skalierungsfaktor:      Skalierung: Modus: x, Faktor: 1
Darstellungszeitraum ... ?
Vom - - bis: - -   Zeitraum: 12.08.2021 - 13.08.2021
Min/Max/Avg-Anzeige ... ?
Zeige MMA aktuell
Zeige MMA Monat
Zeige MMA alles
Zeige --A aktuell
Zeige --A Monat
Zeige --A alles
Keine MMA-Anzeige
MMA:
Average (ber die Originaldaten)
MMA-Basis: 17.04.2019 - 19.05.2019
Quicknavigation für Darstellung... ?
Tage:      1T, 2T, 3T, 5T -1T -2T -3T -5T +1T +2T +3T +5T
Wochen: 1W, 2W, 3W -1W -2W -3W +1W +2W +3W
Monate: 1M, 3M, 6M -1M -3M -6M +1M +3M +6M
Jahre:    1J, 3J, 5J, 10J -1J -3J -5J -10J +1J +3J +5J +10J
Nutze für die Darstellung ... ?
Originaldaten oder Mittelwerte auf ...
Stundenbasis Tagesbasis Wochenbasis
Monatsbasis Jahresbasis      Datenbasis: Original-Daten
Darstellen als:
Statistik (Auto) Statistik J:M      Darstellung:
Zur Graphik,    zurück zur Übersicht aller Sensoren.
 
Tabellarische Datenbersicht: ?
 
Sensor: Nr:Datum:Temp:Abs-Feuchte:Windchill:Wind:
Aussen-T/F 1 12-08-2021 00:00:00 16.2 C 12.82 g/m*3 16.2 C 0 km/h
2 12-08-2021 00:05:00 16.1 C 12.61 g/m*3 16.1 C 0 km/h
3 12-08-2021 00:10:00 16 C 12.67 g/m*3 16 C 0 km/h
4 12-08-2021 00:15:00 15.9 C 12.59 g/m*3 15.9 C 0 km/h
5 12-08-2021 00:20:00 15.9 C 12.59 g/m*3 15.9 C 0 km/h
6 12-08-2021 00:25:00 15.9 C 12.59 g/m*3 15.9 C 0 km/h
7 12-08-2021 00:30:00 15.8 C 12.52 g/m*3 15.8 C 0 km/h
8 12-08-2021 00:35:00 15.8 C 12.52 g/m*3 15.8 C 0 km/h
9 12-08-2021 00:40:00 15.8 C 12.52 g/m*3 15.8 C 0 km/h
10 12-08-2021 00:45:00 15.7 C 12.44 g/m*3 15.7 C 0 km/h
11 12-08-2021 00:50:00 15.7 C 12.44 g/m*3 15.7 C 0 km/h
12 12-08-2021 00:55:00 15.6 C 12.37 g/m*3 15.6 C 0 km/h
13 12-08-2021 01:00:00 15.6 C 12.5 g/m*3 15.6 C 0 km/h
14 12-08-2021 01:05:00 15.6 C 12.5 g/m*3 15.6 C 0 km/h
15 12-08-2021 01:10:00 15.5 C 12.43 g/m*3 15.5 C 0 km/h
16 12-08-2021 01:15:00 15.4 C 12.35 g/m*3 15.4 C 0 km/h
17 12-08-2021 01:20:00 15.4 C 12.35 g/m*3 15.4 C 0 km/h
18 12-08-2021 01:25:00 15.4 C 12.35 g/m*3 15.4 C 0 km/h
19 12-08-2021 01:30:00 15.3 C 12.28 g/m*3 15.3 C 0 km/h
20 12-08-2021 01:35:00 15.3 C 12.28 g/m*3 15.3 C 0 km/h
21 12-08-2021 01:40:00 15.3 C 12.28 g/m*3 15.3 C 0 km/h
22 12-08-2021 01:45:00 15.2 C 12.2 g/m*3 15.2 C 0 km/h
23 12-08-2021 01:50:00 15.2 C 12.2 g/m*3 15.2 C 0 km/h
24 12-08-2021 01:55:00 15.1 C 12.13 g/m*3 15.1 C 0 km/h
25 12-08-2021 02:00:00 15.1 C 12.13 g/m*3 15.1 C 0 km/h
Sensor: Nr:Datum:Temp:Abs-Feuchte:Windchill:Wind:
Aussen-T/F 26 12-08-2021 02:05:00 15 C 12.05 g/m*3 15 C 0 km/h
27 12-08-2021 02:10:00 15 C 12.05 g/m*3 15 C 0 km/h
28 12-08-2021 02:15:00 14.9 C 12.11 g/m*3 14.9 C 0 km/h
29 12-08-2021 02:20:00 14.9 C 12.11 g/m*3 14.9 C 0 km/h
30 12-08-2021 02:25:00 14.9 C 12.11 g/m*3 14.9 C 0 km/h
31 12-08-2021 02:30:00 14.9 C 11.98 g/m*3 14.9 C 0 km/h
32 12-08-2021 02:35:00 14.8 C 11.91 g/m*3 14.8 C 0 km/h
33 12-08-2021 02:40:00 14.8 C 12.03 g/m*3 14.8 C 0 km/h
34 12-08-2021 02:45:00 14.8 C 12.03 g/m*3 14.8 C 0 km/h
35 12-08-2021 02:50:00 14.7 C 11.96 g/m*3 14.7 C 0 km/h
36 12-08-2021 02:55:00 14.7 C 11.96 g/m*3 14.7 C 0 km/h
37 12-08-2021 03:00:00 14.6 C 11.89 g/m*3 14.6 C 0 km/h
38 12-08-2021 03:05:00 14.6 C 11.89 g/m*3 14.6 C 0 km/h
39 12-08-2021 03:10:00 14.5 C 11.82 g/m*3 14.5 C 0 km/h
40 12-08-2021 03:15:00 14.5 C 11.82 g/m*3 14.5 C 0 km/h
41 12-08-2021 03:20:00 14.6 C 11.89 g/m*3 14.6 C 0 km/h
42 12-08-2021 03:25:00 14.6 C 11.89 g/m*3 14.6 C 0 km/h
43 12-08-2021 03:30:00 14.7 C 11.96 g/m*3 14.7 C 0 km/h
44 12-08-2021 03:35:00 14.6 C 11.89 g/m*3 14.6 C 0 km/h
45 12-08-2021 03:40:00 14.6 C 11.89 g/m*3 14.6 C 0 km/h
46 12-08-2021 03:45:00 14.4 C 11.74 g/m*3 14.4 C 0 km/h
47 12-08-2021 03:50:00 14.4 C 11.74 g/m*3 14.4 C 0 km/h
48 12-08-2021 03:55:00 14.3 C 11.67 g/m*3 14.3 C 0 km/h
49 12-08-2021 04:00:00 14.3 C 11.67 g/m*3 14.3 C 0 km/h
50 12-08-2021 04:05:00 14.2 C 11.6 g/m*3 14.2 C 0 km/h
Sensor: Nr:Datum:Temp:Abs-Feuchte:Windchill:Wind:
Aussen-T/F 51 12-08-2021 04:10:00 14.2 C 11.6 g/m*3 14.2 C 0 km/h
52 12-08-2021 04:15:00 14.2 C 11.6 g/m*3 14.2 C 0 km/h
53 12-08-2021 04:20:00 14.1 C 11.53 g/m*3 14.1 C 0 km/h
54 12-08-2021 04:25:00 14.1 C 11.53 g/m*3 14.1 C 0 km/h
55 12-08-2021 04:30:00 14 C 11.46 g/m*3 14 C 0 km/h
56 12-08-2021 04:35:00 13.9 C 11.39 g/m*3 13.9 C 0 km/h
57 12-08-2021 04:40:00 13.9 C 11.39 g/m*3 13.9 C 0 km/h
58 12-08-2021 04:45:00 13.9 C 11.39 g/m*3 13.9 C 0 km/h
59 12-08-2021 04:50:00 13.8 C 11.32 g/m*3 13.8 C 0 km/h
60 12-08-2021 04:55:00 13.8 C 11.32 g/m*3 13.8 C 0 km/h
61 12-08-2021 05:00:00 13.8 C 11.32 g/m*3 13.8 C 0 km/h
62 12-08-2021 05:05:00 13.7 C 11.25 g/m*3 13.7 C 0 km/h
63 12-08-2021 05:10:00 13.7 C 11.25 g/m*3 13.7 C 0 km/h
64 12-08-2021 05:15:00 13.7 C 11.37 g/m*3 13.7 C 0 km/h
65 12-08-2021 05:20:00 13.7 C 11.37 g/m*3 13.7 C 0 km/h
66 12-08-2021 05:25:00 13.7 C 11.37 g/m*3 13.7 C 0 km/h
67 12-08-2021 05:30:00 13.6 C 11.3 g/m*3 13.6 C 0 km/h
68 12-08-2021 05:35:00 13.6 C 11.18 g/m*3 13.6 C 0 km/h
69 12-08-2021 05:40:00 13.6 C 11.18 g/m*3 13.6 C 0 km/h
70 12-08-2021 05:45:00 13.6 C 11.18 g/m*3 13.6 C 0 km/h
71 12-08-2021 05:50:00 13.6 C 11.18 g/m*3 13.6 C 0 km/h
72 12-08-2021 05:55:00 13.6 C 11.3 g/m*3 13.6 C 0 km/h
73 12-08-2021 06:00:00 13.5 C 11.23 g/m*3 13.5 C 0 km/h
74 12-08-2021 06:05:00 13.5 C 11.23 g/m*3 13.5 C 0 km/h
75 12-08-2021 06:10:00 13.4 C 11.16 g/m*3 13.4 C 0 km/h
Sensor: Nr:Datum:Temp:Abs-Feuchte:Windchill:Wind:
Aussen-T/F 76 12-08-2021 06:15:00 13.4 C 11.16 g/m*3 13.4 C 0 km/h
77 12-08-2021 06:20:00 13.4 C 11.16 g/m*3 13.4 C 0 km/h
78 12-08-2021 06:25:00 13.5 C 11.23 g/m*3 13.5 C 0 km/h
79 12-08-2021 06:30:00 13.6 C 11.3 g/m*3 13.6 C 0 km/h
80 12-08-2021 06:35:00 13.7 C 11.37 g/m*3 13.7 C 0 km/h
81 12-08-2021 06:40:00 13.7 C 11.37 g/m*3 13.7 C 0 km/h
82 12-08-2021 06:45:00 13.8 C 11.44 g/m*3 13.8 C 0 km/h
83 12-08-2021 06:50:00 13.9 C 11.51 g/m*3 13.9 C 0 km/h
84 12-08-2021 06:55:00 14 C 11.58 g/m*3 14 C 0 km/h
85 12-08-2021 07:00:00 14.1 C 11.77 g/m*3 14.1 C 0 km/h
86 12-08-2021 07:05:00 14.2 C 11.72 g/m*3 14.2 C 0 km/h
87 12-08-2021 07:10:00 14.2 C 11.72 g/m*3 14.2 C 0 km/h
88 12-08-2021 07:15:00 14.2 C 11.72 g/m*3 14.2 C 0 km/h
89 12-08-2021 07:20:00 14.2 C 11.72 g/m*3 14.2 C 0 km/h
90 12-08-2021 07:25:00 14.3 C 11.79 g/m*3 14.3 C 0 km/h
91 12-08-2021 07:30:00 14.3 C 11.79 g/m*3 14.3 C 0 km/h
92 12-08-2021 07:35:00 14.4 C 11.87 g/m*3 14.4 C 0 km/h
93 12-08-2021 07:40:00 14.6 C 12.14 g/m*3 14.6 C 0 km/h
94 12-08-2021 07:45:00 14.6 C 12.14 g/m*3 14.6 C 0 km/h
95 12-08-2021 07:50:00 14.7 C 12.21 g/m*3 14.7 C 0 km/h
96 12-08-2021 07:55:00 14.7 C 12.09 g/m*3 14.7 C 0 km/h
97 12-08-2021 08:00:00 14.8 C 12.16 g/m*3 14.8 C 0 km/h
98 12-08-2021 08:05:00 14.9 C 12.36 g/m*3 14.9 C 0 km/h
99 12-08-2021 08:10:00 15 C 12.44 g/m*3 15 C 0 km/h
100 12-08-2021 08:15:00 15.1 C 12.51 g/m*3 15.1 C 0 km/h
Sensor: Nr:Datum:Temp:Abs-Feuchte:Windchill:Wind:
Aussen-T/F 101 12-08-2021 08:20:00 15.1 C 12.51 g/m*3 15.1 C 0 km/h
102 12-08-2021 08:25:00 15.2 C 12.59 g/m*3 15.2 C 1.6 km/h
103 12-08-2021 08:30:00 15.2 C 12.46 g/m*3 15.2 C 1.6 km/h
104 12-08-2021 08:35:00 15.2 C 12.46 g/m*3 15.2 C 0 km/h
105 12-08-2021 08:40:00 15.3 C 12.54 g/m*3 15.3 C 1.6 km/h
106 12-08-2021 08:45:00 15.3 C 12.54 g/m*3 15.3 C 0 km/h
107 12-08-2021 08:50:00 15.4 C 12.61 g/m*3 15.4 C 3.2 km/h
108 12-08-2021 08:55:00 15.5 C 12.69 g/m*3 15.5 C 0 km/h
109 12-08-2021 09:00:00 15.6 C 12.77 g/m*3 15.6 C 0 km/h
110 12-08-2021 09:05:00 15.7 C 12.84 g/m*3 15.7 C 0 km/h
111 12-08-2021 09:10:00 15.7 C 12.84 g/m*3 15.7 C 0 km/h
112 12-08-2021 09:15:00 15.8 C 12.92 g/m*3 15.8 C 0 km/h
113 12-08-2021 09:20:00 15.9 C 13 g/m*3 15.9 C 0 km/h
114 12-08-2021 09:25:00 16 C 13.08 g/m*3 16 C 3.2 km/h
115 12-08-2021 09:30:00 16.2 C 13.24 g/m*3 16.2 C 0 km/h
116 12-08-2021 09:35:00 16.3 C 13.32 g/m*3 16.3 C 0 km/h
117 12-08-2021 09:40:00 16.4 C 13.4 g/m*3 16.4 C 0 km/h
118 12-08-2021 09:45:00 16.6 C 13.56 g/m*3 16.6 C 0 km/h
119 12-08-2021 09:50:00 16.7 C 13.64 g/m*3 16.7 C 0 km/h
120 12-08-2021 09:55:00 16.8 C 13.73 g/m*3 16.8 C 0 km/h
121 12-08-2021 10:00:00 17.1 C 13.97 g/m*3 17.1 C 0 km/h
122 12-08-2021 10:05:00 17.2 C 14.06 g/m*3 17.2 C 0 km/h
123 12-08-2021 10:10:00 17.4 C 14.08 g/m*3 17.4 C 0 km/h
124 12-08-2021 10:15:00 17.6 C 14.25 g/m*3 17.6 C 0 km/h
125 12-08-2021 10:20:00 17.8 C 14.27 g/m*3 17.8 C 0 km/h
Sensor: Nr:Datum:Temp:Abs-Feuchte:Windchill:Wind:
Aussen-T/F 126 12-08-2021 10:25:00 18 C 14.59 g/m*3 18 C 0 km/h
127 12-08-2021 10:30:00 18.3 C 14.7 g/m*3 18.3 C 0 km/h
128 12-08-2021 10:35:00 18.5 C 14.87 g/m*3 18.5 C 0 km/h
129 12-08-2021 10:40:00 18.7 C 15.05 g/m*3 18.7 C 0 km/h
130 12-08-2021 10:45:00 18.9 C 14.9 g/m*3 18.9 C 0 km/h
131 12-08-2021 10:50:00 19.1 C 15.08 g/m*3 19.1 C 0 km/h
132 12-08-2021 10:55:00 19.3 C 14.93 g/m*3 19.3 C 0 km/h
133 12-08-2021 11:00:00 19.4 C 15.18 g/m*3 19.4 C 0 km/h
134 12-08-2021 11:05:00 19.7 C 15.11 g/m*3 19.7 C 0 km/h
135 12-08-2021 11:10:00 20 C 15.21 g/m*3 20 C 1.6 km/h
136 12-08-2021 11:15:00 20.2 C 15.39 g/m*3 20.2 C 0 km/h
137 12-08-2021 11:20:00 20.4 C 15.57 g/m*3 20.4 C 0 km/h
138 12-08-2021 11:25:00 20.7 C 16.02 g/m*3 20.7 C 0 km/h
139 12-08-2021 11:30:00 20.8 C 15.75 g/m*3 20.8 C 0 km/h
140 12-08-2021 11:35:00 20.9 C 15.66 g/m*3 20.9 C 0 km/h
141 12-08-2021 11:40:00 21.2 C 15.57 g/m*3 21.2 C 0 km/h
142 12-08-2021 11:45:00 21.4 C 15.94 g/m*3 21.4 C 1.6 km/h
143 12-08-2021 11:50:00 21.8 C 16.12 g/m*3 21.8 C 0 km/h
144 12-08-2021 11:55:00 22.1 C 16.01 g/m*3 22.1 C 0 km/h
145 12-08-2021 12:00:00 22.3 C 15.99 g/m*3 22.3 C 0 km/h
146 12-08-2021 12:05:00 22.6 C 15.87 g/m*3 22.6 C 0 km/h
147 12-08-2021 12:10:00 22.8 C 15.85 g/m*3 22.8 C 3.2 km/h
148 12-08-2021 12:15:00 23.1 C 15.92 g/m*3 23.1 C 1.6 km/h
149 12-08-2021 12:20:00 23.3 C 16.94 g/m*3 23.3 C 0 km/h
150 12-08-2021 12:25:00 23.5 C 16.71 g/m*3 23.5 C 0 km/h
Sensor: Nr:Datum:Temp:Abs-Feuchte:Windchill:Wind:
Aussen-T/F 151 12-08-2021 12:30:00 23.6 C 16.8 g/m*3 23.6 C 0 km/h
152 12-08-2021 12:35:00 23.7 C 16.26 g/m*3 23.7 C 0 km/h
153 12-08-2021 12:40:00 23.7 C 16.26 g/m*3 23.7 C 0 km/h
154 12-08-2021 12:45:00 23.8 C 16.13 g/m*3 23.8 C 0 km/h
155 12-08-2021 12:50:00 23.9 C 16.23 g/m*3 23.9 C 0 km/h
156 12-08-2021 12:55:00 24.1 C 16.41 g/m*3 24.1 C 0 km/h
157 12-08-2021 13:00:00 24.2 C 17.16 g/m*3 24.2 C 1.6 km/h
158 12-08-2021 13:05:00 24.2 C 15.84 g/m*3 24.2 C 3.2 km/h
159 12-08-2021 13:10:00 24.3 C 15.93 g/m*3 24.3 C 0 km/h
160 12-08-2021 13:15:00 24.5 C 17.01 g/m*3 24.5 C 0 km/h
161 12-08-2021 13:20:00 24.6 C 17.56 g/m*3 24.6 C 0 km/h
162 12-08-2021 13:25:00 24.6 C 16.43 g/m*3 24.6 C 1.6 km/h
163 12-08-2021 13:30:00 24.5 C 15.44 g/m*3 24.5 C 4.8 km/h
164 12-08-2021 13:35:00 24.6 C 15.53 g/m*3 24.6 C 4.8 km/h
165 12-08-2021 13:40:00 24.6 C 15.75 g/m*3 24.6 C 4.8 km/h
166 12-08-2021 13:45:00 24.7 C 15.39 g/m*3 24.7 C 6.4 km/h
167 12-08-2021 13:50:00 24.7 C 15.62 g/m*3 24.7 C 3.2 km/h
168 12-08-2021 13:55:00 24.8 C 15.25 g/m*3 24.8 C 1.6 km/h
169 12-08-2021 14:00:00 24.9 C 16.71 g/m*3 24.9 C 0 km/h
170 12-08-2021 14:05:00 24.9 C 16.25 g/m*3 24.9 C 0 km/h
171 12-08-2021 14:10:00 25 C 15.65 g/m*3 25 C 3.2 km/h
172 12-08-2021 14:15:00 25.2 C 16.53 g/m*3 25.2 C 0 km/h
173 12-08-2021 14:20:00 25.2 C 15.83 g/m*3 25.2 C 0 km/h
174 12-08-2021 14:25:00 25.3 C 17.09 g/m*3 25.3 C 0 km/h
175 12-08-2021 14:30:00 25.3 C 15.92 g/m*3 25.3 C 0 km/h
Sensor: Nr:Datum:Temp:Abs-Feuchte:Windchill:Wind:
Aussen-T/F 176 12-08-2021 14:35:00 25.3 C 15.92 g/m*3 25.3 C 4.8 km/h
177 12-08-2021 14:40:00 25.3 C 15.69 g/m*3 25.3 C 3.2 km/h
178 12-08-2021 14:45:00 25.4 C 16.24 g/m*3 25.4 C 3.2 km/h
179 12-08-2021 14:50:00 25.5 C 16.57 g/m*3 25.5 C 0 km/h
180 12-08-2021 14:55:00 25.5 C 15.86 g/m*3 25.5 C 4.8 km/h
181 12-08-2021 15:00:00 25.7 C 16.04 g/m*3 25.7 C 3.2 km/h
182 12-08-2021 15:05:00 25.8 C 16.37 g/m*3 25.8 C 3.2 km/h
183 12-08-2021 15:10:00 25.8 C 16.37 g/m*3 25.8 C 4.8 km/h
184 12-08-2021 15:15:00 25.9 C 16.22 g/m*3 25.9 C 6.4 km/h
185 12-08-2021 15:20:00 26.1 C 17.38 g/m*3 26.1 C 3.2 km/h
186 12-08-2021 15:25:00 26.1 C 16.16 g/m*3 26.1 C 8.1 km/h
187 12-08-2021 15:30:00 26.3 C 17.82 g/m*3 26.3 C 9.7 km/h
188 12-08-2021 15:35:00 26.4 C 17.92 g/m*3 26.4 C 3.2 km/h
189 12-08-2021 15:40:00 26.5 C 16.27 g/m*3 26.5 C 6.4 km/h
190 12-08-2021 15:45:00 26.7 C 16.45 g/m*3 26.7 C 8.1 km/h
191 12-08-2021 15:50:00 26.9 C 16.38 g/m*3 26.9 C 1.6 km/h
192 12-08-2021 15:55:00 27.1 C 16.56 g/m*3 27.1 C 8.1 km/h
193 12-08-2021 16:00:00 27.3 C 16.75 g/m*3 27.3 C 6.4 km/h
194 12-08-2021 16:05:00 27.4 C 16.05 g/m*3 27.4 C 6.4 km/h
195 12-08-2021 16:10:00 27.7 C 16.32 g/m*3 27.7 C 8.1 km/h
196 12-08-2021 16:15:00 27.8 C 16.14 g/m*3 27.8 C 9.7 km/h
197 12-08-2021 16:20:00 28.1 C 16.41 g/m*3 28.1 C 8.1 km/h
198 12-08-2021 16:25:00 28.4 C 15.57 g/m*3 28.4 C 6.4 km/h
199 12-08-2021 16:30:00 28.6 C 15.18 g/m*3 28.6 C 6.4 km/h
200 12-08-2021 16:35:00 28.9 C 16.85 g/m*3 28.9 C 4.8 km/h
Sensor: Nr:Datum:Temp:Abs-Feuchte:Windchill:Wind:
Aussen-T/F 201 12-08-2021 16:40:00 29.1 C 15.6 g/m*3 29.1 C 1.6 km/h
202 12-08-2021 16:45:00 29.5 C 19.18 g/m*3 29.5 C 1.6 km/h
203 12-08-2021 16:50:00 29.8 C 18 g/m*3 29.8 C 0 km/h
204 12-08-2021 16:55:00 29.8 C 16.8 g/m*3 29.8 C 0 km/h
205 12-08-2021 17:00:00 30.1 C 19.51 g/m*3 30.1 C 0 km/h
206 12-08-2021 17:05:00 30.3 C 19.42 g/m*3 30.3 C 0 km/h
207 12-08-2021 17:10:00 30.2 C 17.78 g/m*3 30.2 C 0 km/h
208 12-08-2021 17:15:00 30.1 C 17.68 g/m*3 30.1 C 0 km/h
209 12-08-2021 17:20:00 30.1 C 18.29 g/m*3 30.1 C 0 km/h
210 12-08-2021 17:25:00 29.9 C 17.8 g/m*3 29.9 C 0 km/h
211 12-08-2021 17:30:00 29.7 C 18.2 g/m*3 29.7 C 1.6 km/h
212 12-08-2021 17:35:00 29.7 C 18.5 g/m*3 29.7 C 3.2 km/h
213 12-08-2021 17:40:00 29.8 C 16.5 g/m*3 29.8 C 3.2 km/h
214 12-08-2021 17:45:00 29.8 C 16.8 g/m*3 29.8 C 8.1 km/h
215 12-08-2021 17:50:00 29.9 C 15.38 g/m*3 29.9 C 1.6 km/h
216 12-08-2021 17:55:00 29.9 C 15.68 g/m*3 29.9 C 0 km/h
217 12-08-2021 18:00:00 29.9 C 15.38 g/m*3 29.9 C 0 km/h
218 12-08-2021 18:05:00 29.9 C 17.19 g/m*3 29.9 C 0 km/h
219 12-08-2021 18:10:00 30.2 C 19.31 g/m*3 30.2 C 0 km/h
220 12-08-2021 18:15:00 30.3 C 19.42 g/m*3 30.3 C 0 km/h
221 12-08-2021 18:20:00 30.4 C 18.59 g/m*3 30.4 C 1.6 km/h
222 12-08-2021 18:25:00 30.6 C 19.42 g/m*3 30.6 C 1.6 km/h
223 12-08-2021 18:30:00 30.4 C 19.52 g/m*3 30.4 C 1.6 km/h
224 12-08-2021 18:35:00 30.4 C 19.83 g/m*3 30.4 C 0 km/h
225 12-08-2021 18:40:00 30.2 C 19.31 g/m*3 30.2 C 0 km/h
Sensor: Nr:Datum:Temp:Abs-Feuchte:Windchill:Wind:
Aussen-T/F 226 12-08-2021 18:45:00 29.8 C 18.9 g/m*3 29.8 C 0 km/h
227 12-08-2021 18:50:00 29.4 C 19.08 g/m*3 29.4 C 0 km/h
228 12-08-2021 18:55:00 28.9 C 18.85 g/m*3 28.9 C 0 km/h
229 12-08-2021 19:00:00 28.4 C 18.62 g/m*3 28.4 C 3.2 km/h
230 12-08-2021 19:05:00 27.9 C 18.12 g/m*3 27.9 C 3.2 km/h
231 12-08-2021 19:10:00 27.6 C 18.36 g/m*3 27.6 C 3.2 km/h
232 12-08-2021 19:15:00 27.3 C 18.05 g/m*3 27.3 C 3.2 km/h
233 12-08-2021 19:20:00 27.1 C 17.86 g/m*3 27.1 C 4.8 km/h
234 12-08-2021 19:25:00 26.8 C 17.82 g/m*3 26.8 C 4.8 km/h
235 12-08-2021 19:30:00 26.6 C 17.62 g/m*3 26.6 C 4.8 km/h
236 12-08-2021 19:35:00 26.2 C 17.48 g/m*3 26.2 C 4.8 km/h
237 12-08-2021 19:40:00 25.8 C 17.33 g/m*3 25.8 C 3.2 km/h
238 12-08-2021 19:45:00 25.5 C 17.28 g/m*3 25.5 C 6.4 km/h
239 12-08-2021 19:50:00 25.1 C 16.9 g/m*3 25.1 C 6.4 km/h
240 12-08-2021 19:55:00 24.8 C 16.84 g/m*3 24.8 C 6.4 km/h
241 12-08-2021 20:00:00 24.4 C 16.47 g/m*3 24.4 C 8.1 km/h
242 12-08-2021 20:05:00 24.1 C 16.63 g/m*3 24.1 C 6.4 km/h
243 12-08-2021 20:10:00 23.8 C 16.35 g/m*3 23.8 C 8.1 km/h
244 12-08-2021 20:15:00 23.7 C 16.26 g/m*3 23.7 C 8.1 km/h
245 12-08-2021 20:20:00 23.4 C 15.98 g/m*3 23.4 C 8.1 km/h
246 12-08-2021 20:25:00 23.3 C 16.1 g/m*3 23.3 C 8.1 km/h
247 12-08-2021 20:30:00 23.1 C 15.92 g/m*3 23.1 C 8.1 km/h
248 12-08-2021 20:35:00 22.9 C 16.14 g/m*3 22.9 C 4.8 km/h
249 12-08-2021 20:40:00 22.7 C 15.96 g/m*3 22.7 C 6.4 km/h
250 12-08-2021 20:45:00 22.4 C 15.89 g/m*3 22.4 C 3.2 km/h
Sensor: Nr:Datum:Temp:Abs-Feuchte:Windchill:Wind:
Aussen-T/F 251 12-08-2021 20:50:00 22.2 C 15.9 g/m*3 22.2 C 3.2 km/h
252 12-08-2021 20:55:00 22 C 15.72 g/m*3 22 C 6.4 km/h
253 12-08-2021 21:00:00 21.8 C 15.73 g/m*3 21.8 C 4.8 km/h
254 12-08-2021 21:05:00 21.7 C 15.83 g/m*3 21.7 C 3.2 km/h
255 12-08-2021 21:10:00 21.6 C 15.93 g/m*3 21.6 C 3.2 km/h
256 12-08-2021 21:15:00 21.4 C 15.75 g/m*3 21.4 C 3.2 km/h
257 12-08-2021 21:20:00 21.3 C 15.66 g/m*3 21.3 C 1.6 km/h
258 12-08-2021 21:25:00 21.2 C 15.75 g/m*3 21.2 C 1.6 km/h
259 12-08-2021 21:30:00 21.1 C 15.66 g/m*3 21.1 C 3.2 km/h
260 12-08-2021 21:35:00 20.9 C 15.48 g/m*3 20.9 C 3.2 km/h
261 12-08-2021 21:40:00 20.8 C 15.57 g/m*3 20.8 C 0 km/h
262 12-08-2021 21:45:00 20.8 C 15.57 g/m*3 20.8 C 0 km/h
263 12-08-2021 21:50:00 20.7 C 15.48 g/m*3 20.7 C 0 km/h
264 12-08-2021 21:55:00 20.7 C 15.66 g/m*3 20.7 C 1.6 km/h
265 12-08-2021 22:00:00 20.6 C 15.57 g/m*3 20.6 C 1.6 km/h
266 12-08-2021 22:05:00 20.5 C 15.48 g/m*3 20.5 C 0 km/h
267 12-08-2021 22:10:00 20.4 C 15.39 g/m*3 20.4 C 0 km/h
268 12-08-2021 22:15:00 20.3 C 15.3 g/m*3 20.3 C 0 km/h
269 12-08-2021 22:20:00 20.2 C 15.21 g/m*3 20.2 C 0 km/h
270 12-08-2021 22:25:00 20.1 C 15.3 g/m*3 20.1 C 0 km/h
271 12-08-2021 22:30:00 20 C 15.21 g/m*3 20 C 0 km/h
272 12-08-2021 22:35:00 19.8 C 15.03 g/m*3 19.8 C 0 km/h
273 12-08-2021 22:40:00 19.7 C 14.94 g/m*3 19.7 C 0 km/h
274 12-08-2021 22:45:00 19.6 C 14.86 g/m*3 19.6 C 0 km/h
275 12-08-2021 22:50:00 19.4 C 14.68 g/m*3 19.4 C 0 km/h
Sensor: Nr:Datum:Temp:Abs-Feuchte:Windchill:Wind:
Aussen-T/F 276 12-08-2021 22:55:00 19.3 C 14.6 g/m*3 19.3 C 0 km/h
277 12-08-2021 23:00:00 19.2 C 14.68 g/m*3 19.2 C 0 km/h
278 12-08-2021 23:05:00 19.1 C 14.59 g/m*3 19.1 C 0 km/h
279 12-08-2021 23:10:00 19 C 14.5 g/m*3 19 C 0 km/h
280 12-08-2021 23:15:00 18.9 C 14.58 g/m*3 18.9 C 0 km/h
281 12-08-2021 23:20:00 18.8 C 14.33 g/m*3 18.8 C 0 km/h
282 12-08-2021 23:25:00 18.7 C 14.41 g/m*3 18.7 C 0 km/h
283 12-08-2021 23:30:00 18.7 C 14.41 g/m*3 18.7 C 0 km/h
284 12-08-2021 23:35:00 18.6 C 14.32 g/m*3 18.6 C 1.6 km/h
285 12-08-2021 23:40:00 18.6 C 14.32 g/m*3 18.6 C 0 km/h
286 12-08-2021 23:45:00 18.4 C 14.16 g/m*3 18.4 C 0 km/h
287 12-08-2021 23:50:00 18.3 C 14.23 g/m*3 18.3 C 0 km/h
288 12-08-2021 23:55:00 18.3 C 14.23 g/m*3 18.3 C 0 km/h
289 13-08-2021 00:00:00 18.2 C 14.14 g/m*3 18.2 C 0 km/h
290 13-08-2021 00:05:00 18.1 C 14.06 g/m*3 18.1 C 0 km/h
291 13-08-2021 00:10:00 18 C 13.98 g/m*3 18 C 0 km/h
292 13-08-2021 00:15:00 17.9 C 13.89 g/m*3 17.9 C 0 km/h
293 13-08-2021 00:20:00 17.9 C 14.05 g/m*3 17.9 C 0 km/h
294 13-08-2021 00:25:00 17.8 C 13.81 g/m*3 17.8 C 0 km/h
295 13-08-2021 00:30:00 17.7 C 13.88 g/m*3 17.7 C 0 km/h
296 13-08-2021 00:35:00 17.7 C 13.88 g/m*3 17.7 C 0 km/h
297 13-08-2021 00:40:00 17.7 C 13.88 g/m*3 17.7 C 0 km/h
298 13-08-2021 00:45:00 17.6 C 13.8 g/m*3 17.6 C 0 km/h
299 13-08-2021 00:50:00 17.6 C 13.8 g/m*3 17.6 C 0 km/h
300 13-08-2021 00:55:00 17.4 C 13.63 g/m*3 17.4 C 0 km/h
Sensor: Nr:Datum:Temp:Abs-Feuchte:Windchill:Wind:
Aussen-T/F 301 13-08-2021 01:00:00 17.4 C 13.78 g/m*3 17.4 C 0 km/h
302 13-08-2021 01:05:00 17.3 C 13.7 g/m*3 17.3 C 0 km/h
303 13-08-2021 01:10:00 17.3 C 13.7 g/m*3 17.3 C 0 km/h
304 13-08-2021 01:15:00 17.2 C 13.62 g/m*3 17.2 C 0 km/h
305 13-08-2021 01:20:00 17.2 C 13.62 g/m*3 17.2 C 0 km/h
306 13-08-2021 01:25:00 17.1 C 13.54 g/m*3 17.1 C 0 km/h
307 13-08-2021 01:30:00 17.1 C 13.54 g/m*3 17.1 C 0 km/h
308 13-08-2021 01:35:00 17.1 C 13.68 g/m*3 17.1 C 0 km/h
309 13-08-2021 01:40:00 17.1 C 13.68 g/m*3 17.1 C 0 km/h
310 13-08-2021 01:45:00 17 C 13.6 g/m*3 17 C 1.6 km/h
311 13-08-2021 01:50:00 17 C 13.6 g/m*3 17 C 3.2 km/h
312 13-08-2021 01:55:00 17 C 13.6 g/m*3 17 C 0 km/h
313 13-08-2021 02:00:00 16.9 C 13.52 g/m*3 16.9 C 0 km/h
314 13-08-2021 02:05:00 17 C 13.6 g/m*3 17 C 1.6 km/h
315 13-08-2021 02:10:00 17.1 C 13.68 g/m*3 17.1 C 0 km/h
316 13-08-2021 02:15:00 17 C 13.6 g/m*3 17 C 0 km/h
317 13-08-2021 02:20:00 16.9 C 13.52 g/m*3 16.9 C 0 km/h
318 13-08-2021 02:25:00 16.8 C 13.44 g/m*3 16.8 C 0 km/h
319 13-08-2021 02:30:00 16.8 C 13.44 g/m*3 16.8 C 0 km/h
320 13-08-2021 02:35:00 16.7 C 13.36 g/m*3 16.7 C 0 km/h
321 13-08-2021 02:40:00 16.8 C 13.44 g/m*3 16.8 C 0 km/h
322 13-08-2021 02:45:00 16.7 C 13.36 g/m*3 16.7 C 0 km/h
323 13-08-2021 02:50:00 16.7 C 13.36 g/m*3 16.7 C 0 km/h
324 13-08-2021 02:55:00 16.6 C 13.28 g/m*3 16.6 C 0 km/h
325 13-08-2021 03:00:00 16.6 C 13.28 g/m*3 16.6 C 0 km/h
Sensor: Nr:Datum:Temp:Abs-Feuchte:Windchill:Wind:
Aussen-T/F 326 13-08-2021 03:05:00 16.5 C 13.2 g/m*3 16.5 C 0 km/h
327 13-08-2021 03:10:00 16.4 C 13.12 g/m*3 16.4 C 0 km/h
328 13-08-2021 03:15:00 16.4 C 13.12 g/m*3 16.4 C 0 km/h
329 13-08-2021 03:20:00 16.3 C 13.04 g/m*3 16.3 C 0 km/h
330 13-08-2021 03:25:00 16.3 C 13.04 g/m*3 16.3 C 0 km/h
331 13-08-2021 03:30:00 16.2 C 12.96 g/m*3 16.2 C 0 km/h
332 13-08-2021 03:35:00 16.2 C 12.96 g/m*3 16.2 C 0 km/h
333 13-08-2021 03:40:00 16.2 C 12.96 g/m*3 16.2 C 0 km/h
334 13-08-2021 03:45:00 16.2 C 13.1 g/m*3 16.2 C 0 km/h
335 13-08-2021 03:50:00 16.1 C 13.02 g/m*3 16.1 C 0 km/h
336 13-08-2021 03:55:00 16.1 C 13.02 g/m*3 16.1 C 0 km/h
337 13-08-2021 04:00:00 16.1 C 13.02 g/m*3 16.1 C 0 km/h
338 13-08-2021 04:05:00 16 C 12.94 g/m*3 16 C 0 km/h
339 13-08-2021 04:10:00 16 C 12.94 g/m*3 16 C 0 km/h
340 13-08-2021 04:15:00 16 C 12.94 g/m*3 16 C 0 km/h
341 13-08-2021 04:20:00 16.1 C 13.02 g/m*3 16.1 C 0 km/h
342 13-08-2021 04:25:00 16.1 C 13.02 g/m*3 16.1 C 0 km/h
343 13-08-2021 04:30:00 16.1 C 13.02 g/m*3 16.1 C 0 km/h
344 13-08-2021 04:35:00 16.1 C 13.02 g/m*3 16.1 C 0 km/h
345 13-08-2021 04:40:00 16 C 12.94 g/m*3 16 C 0 km/h
346 13-08-2021 04:45:00 15.9 C 12.87 g/m*3 15.9 C 0 km/h
347 13-08-2021 04:50:00 15.9 C 12.87 g/m*3 15.9 C 0 km/h
348 13-08-2021 04:55:00 15.8 C 12.79 g/m*3 15.8 C 0 km/h
349 13-08-2021 05:00:00 15.8 C 12.79 g/m*3 15.8 C 0 km/h
350 13-08-2021 05:05:00 15.8 C 12.79 g/m*3 15.8 C 0 km/h
Sensor: Nr:Datum:Temp:Abs-Feuchte:Windchill:Wind:
Aussen-T/F 351 13-08-2021 05:10:00 15.8 C 12.79 g/m*3 15.8 C 0 km/h
352 13-08-2021 05:15:00 15.7 C 12.71 g/m*3 15.7 C 0 km/h
353 13-08-2021 05:20:00 15.7 C 12.71 g/m*3 15.7 C 0 km/h
354 13-08-2021 05:25:00 15.6 C 12.63 g/m*3 15.6 C 0 km/h
355 13-08-2021 05:30:00 15.6 C 12.63 g/m*3 15.6 C 0 km/h
356 13-08-2021 05:35:00 15.6 C 12.63 g/m*3 15.6 C 0 km/h
357 13-08-2021 05:40:00 15.6 C 12.63 g/m*3 15.6 C 0 km/h
358 13-08-2021 05:45:00 15.6 C 12.63 g/m*3 15.6 C 0 km/h
359 13-08-2021 05:50:00 15.6 C 12.77 g/m*3 15.6 C 0 km/h
360 13-08-2021 05:55:00 15.7 C 12.84 g/m*3 15.7 C 0 km/h
361 13-08-2021 06:00:00 15.7 C 12.84 g/m*3 15.7 C 0 km/h
362 13-08-2021 06:05:00 15.7 C 12.84 g/m*3 15.7 C 0 km/h
363 13-08-2021 06:10:00 15.7 C 12.84 g/m*3 15.7 C 0 km/h
364 13-08-2021 06:15:00 15.7 C 12.84 g/m*3 15.7 C 0 km/h
365 13-08-2021 06:20:00 15.7 C 12.84 g/m*3 15.7 C 0 km/h
366 13-08-2021 06:25:00 15.6 C 12.77 g/m*3 15.6 C 0 km/h
367 13-08-2021 06:30:00 15.6 C 12.77 g/m*3 15.6 C 0 km/h
368 13-08-2021 06:35:00 15.6 C 12.77 g/m*3 15.6 C 0 km/h
369 13-08-2021 06:40:00 15.6 C 12.77 g/m*3 15.6 C 0 km/h
370 13-08-2021 06:45:00 15.6 C 12.77 g/m*3 15.6 C 0 km/h
371 13-08-2021 06:50:00 15.6 C 12.77 g/m*3 15.6 C 0 km/h
372 13-08-2021 06:55:00 15.7 C 12.84 g/m*3 15.7 C 0 km/h
373 13-08-2021 07:00:00 15.7 C 12.84 g/m*3 15.7 C 0 km/h
374 13-08-2021 07:05:00 15.7 C 12.84 g/m*3 15.7 C 0 km/h
375 13-08-2021 07:10:00 15.8 C 12.92 g/m*3 15.8 C 0 km/h
Sensor: Nr:Datum:Temp:Abs-Feuchte:Windchill:Wind:
Aussen-T/F 376 13-08-2021 07:15:00 15.8 C 12.92 g/m*3 15.8 C 0 km/h
377 13-08-2021 07:20:00 15.8 C 12.92 g/m*3 15.8 C 0 km/h
378 13-08-2021 07:25:00 15.9 C 13 g/m*3 15.9 C 0 km/h
379 13-08-2021 07:30:00 15.9 C 13 g/m*3 15.9 C 0 km/h
380 13-08-2021 07:35:00 15.9 C 13 g/m*3 15.9 C 1.6 km/h
381 13-08-2021 07:40:00 16 C 13.08 g/m*3 16 C 0 km/h
382 13-08-2021 07:45:00 16.1 C 13.16 g/m*3 16.1 C 0 km/h
383 13-08-2021 07:50:00 16.1 C 13.16 g/m*3 16.1 C 0 km/h
384 13-08-2021 07:55:00 16.2 C 13.24 g/m*3 16.2 C 0 km/h
385 13-08-2021 08:00:00 16.3 C 13.46 g/m*3 16.3 C 0 km/h
386 13-08-2021 08:05:00 16.4 C 13.54 g/m*3 16.4 C 0 km/h
387 13-08-2021 08:10:00 16.4 C 13.4 g/m*3 16.4 C 0 km/h
388 13-08-2021 08:15:00 16.6 C 13.56 g/m*3 16.6 C 0 km/h
389 13-08-2021 08:20:00 16.7 C 13.79 g/m*3 16.7 C 0 km/h
390 13-08-2021 08:25:00 16.8 C 13.87 g/m*3 16.8 C 0 km/h
391 13-08-2021 08:30:00 16.9 C 13.95 g/m*3 16.9 C 0 km/h
392 13-08-2021 08:35:00 17.1 C 14.12 g/m*3 17.1 C 0 km/h
393 13-08-2021 08:40:00 17.2 C 14.2 g/m*3 17.2 C 0 km/h
394 13-08-2021 08:45:00 17.3 C 14.29 g/m*3 17.3 C 0 km/h
395 13-08-2021 08:50:00 17.5 C 14.46 g/m*3 17.5 C 1.6 km/h
396 13-08-2021 08:55:00 17.6 C 14.55 g/m*3 17.6 C 0 km/h
397 13-08-2021 09:00:00 17.7 C 14.64 g/m*3 17.7 C 0 km/h
398 13-08-2021 09:05:00 17.8 C 14.72 g/m*3 17.8 C 0 km/h
399 13-08-2021 09:10:00 17.8 C 14.72 g/m*3 17.8 C 0 km/h
400 13-08-2021 09:15:00 17.9 C 14.81 g/m*3 17.9 C 0 km/h
Sensor: Nr:Datum:Temp:Abs-Feuchte:Windchill:Wind:
Aussen-T/F 401 13-08-2021 09:20:00 17.9 C 14.66 g/m*3 17.9 C 1.6 km/h
402 13-08-2021 09:25:00 18.1 C 14.83 g/m*3 18.1 C 1.6 km/h
403 13-08-2021 09:30:00 18.2 C 14.92 g/m*3 18.2 C 0 km/h
404 13-08-2021 09:35:00 18.3 C 15.01 g/m*3 18.3 C 0 km/h
405 13-08-2021 09:40:00 18.4 C 15.1 g/m*3 18.4 C 0 km/h
406 13-08-2021 09:45:00 18.4 C 15.1 g/m*3 18.4 C 0 km/h
407 13-08-2021 09:50:00 18.6 C 15.28 g/m*3 18.6 C 0 km/h
408 13-08-2021 09:55:00 18.7 C 15.37 g/m*3 18.7 C 0 km/h
409 13-08-2021 10:00:00 18.8 C 15.46 g/m*3 18.8 C 0 km/h
410 13-08-2021 10:05:00 18.9 C 15.55 g/m*3 18.9 C 0 km/h
411 13-08-2021 10:10:00 19.1 C 15.74 g/m*3 19.1 C 0 km/h
412 13-08-2021 10:15:00 19.2 C 15.83 g/m*3 19.2 C 0 km/h
413 13-08-2021 10:20:00 19.4 C 16.02 g/m*3 19.4 C 0 km/h
414 13-08-2021 10:25:00 19.6 C 16.04 g/m*3 19.6 C 0 km/h
415 13-08-2021 10:30:00 19.7 C 16.13 g/m*3 19.7 C 0 km/h
416 13-08-2021 10:35:00 19.9 C 16.32 g/m*3 19.9 C 0 km/h
417 13-08-2021 10:40:00 20.1 C 16.51 g/m*3 20.1 C 0 km/h
418 13-08-2021 10:45:00 20.3 C 16.71 g/m*3 20.3 C 0 km/h
419 13-08-2021 10:50:00 20.6 C 17 g/m*3 20.6 C 0 km/h
420 13-08-2021 10:55:00 20.8 C 17.02 g/m*3 20.8 C 0 km/h
421 13-08-2021 11:00:00 20.9 C 16.94 g/m*3 20.9 C 0 km/h
422 13-08-2021 11:05:00 21.1 C 17.14 g/m*3 21.1 C 0 km/h
423 13-08-2021 11:10:00 21.2 C 17.23 g/m*3 21.2 C 0 km/h
424 13-08-2021 11:15:00 21.4 C 17.25 g/m*3 21.4 C 0 km/h
425 13-08-2021 11:20:00 21.7 C 17.36 g/m*3 21.7 C 0 km/h
Sensor: Nr:Datum:Temp:Abs-Feuchte:Windchill:Wind:
Aussen-T/F 426 13-08-2021 11:25:00 21.8 C 17.27 g/m*3 21.8 C 0 km/h
427 13-08-2021 11:30:00 22.2 C 17.67 g/m*3 22.2 C 0 km/h
428 13-08-2021 11:35:00 22.4 C 17.87 g/m*3 22.4 C 0 km/h
429 13-08-2021 11:40:00 22.6 C 17.88 g/m*3 22.6 C 0 km/h
430 13-08-2021 11:45:00 22.7 C 17.78 g/m*3 22.7 C 0 km/h
431 13-08-2021 11:50:00 22.7 C 17.58 g/m*3 22.7 C 0 km/h
432 13-08-2021 11:55:00 22.8 C 17.68 g/m*3 22.8 C 0 km/h
433 13-08-2021 12:00:00 23 C 17.47 g/m*3 23 C 6.4 km/h
434 13-08-2021 12:05:00 23.2 C 17.67 g/m*3 23.2 C 3.2 km/h
435 13-08-2021 12:10:00 23.4 C 17.87 g/m*3 23.4 C 1.6 km/h
436 13-08-2021 12:15:00 23.7 C 18.18 g/m*3 23.7 C 0 km/h
437 13-08-2021 12:20:00 23.8 C 18.07 g/m*3 23.8 C 4.8 km/h
438 13-08-2021 12:25:00 24.1 C 18.38 g/m*3 24.1 C 3.2 km/h
439 13-08-2021 12:30:00 24.2 C 18.04 g/m*3 24.2 C 8.1 km/h
440 13-08-2021 12:35:00 24.3 C 17.26 g/m*3 24.3 C 8.1 km/h
441 13-08-2021 12:40:00 24.6 C 16.88 g/m*3 24.6 C 8.1 km/h
442 13-08-2021 12:45:00 24.8 C 16.62 g/m*3 24.8 C 8.1 km/h
443 13-08-2021 12:50:00 24.9 C 16.94 g/m*3 24.9 C 8.1 km/h
444 13-08-2021 12:55:00 25.1 C 16.9 g/m*3 25.1 C 6.4 km/h
445 13-08-2021 13:00:00 25.2 C 16.76 g/m*3 25.2 C 9.7 km/h
446 13-08-2021 13:05:00 25.3 C 16.62 g/m*3 25.3 C 6.4 km/h
447 13-08-2021 13:10:00 25.5 C 16.81 g/m*3 25.5 C 11.3 km/h
448 13-08-2021 13:15:00 25.6 C 17.86 g/m*3 25.6 C 11.3 km/h
449 13-08-2021 13:20:00 25.5 C 16.81 g/m*3 25.5 C 6.4 km/h
450 13-08-2021 13:25:00 25.5 C 17.05 g/m*3 25.5 C 3.2 km/h
Sensor: Nr:Datum:Temp:Abs-Feuchte:Windchill:Wind:
Aussen-T/F 451 13-08-2021 13:30:00 25.6 C 16.9 g/m*3 25.6 C 3.2 km/h
452 13-08-2021 13:35:00 25.7 C 17.48 g/m*3 25.7 C 1.6 km/h
453 13-08-2021 13:40:00 25.8 C 17.57 g/m*3 25.8 C 0 km/h
454 13-08-2021 13:45:00 26 C 17.77 g/m*3 26 C 3.2 km/h
455 13-08-2021 13:50:00 26.1 C 17.38 g/m*3 26.1 C 3.2 km/h
456 13-08-2021 13:55:00 26.2 C 17.48 g/m*3 26.2 C 6.4 km/h
457 13-08-2021 14:00:00 26.4 C 17.67 g/m*3 26.4 C 4.8 km/h
458 13-08-2021 14:05:00 26.6 C 17.37 g/m*3 26.6 C 9.7 km/h
459 13-08-2021 14:10:00 26.7 C 17.72 g/m*3 26.7 C 9.7 km/h
460 13-08-2021 14:15:00 26.8 C 17.31 g/m*3 26.8 C 9.7 km/h
461 13-08-2021 14:20:00 26.9 C 17.4 g/m*3 26.9 C 4.8 km/h
462 13-08-2021 14:25:00 27.1 C 17.34 g/m*3 27.1 C 9.7 km/h
463 13-08-2021 14:30:00 27.2 C 17.7 g/m*3 27.2 C 8.1 km/h
464 13-08-2021 14:35:00 27.2 C 17.43 g/m*3 27.2 C 12.9 km/h
465 13-08-2021 14:40:00 27.3 C 17.53 g/m*3 27.3 C 9.7 km/h
466 13-08-2021 14:45:00 27.2 C 17.43 g/m*3 27.2 C 14.5 km/h
467 13-08-2021 14:50:00 27.1 C 17.34 g/m*3 27.1 C 9.7 km/h
468 13-08-2021 14:55:00 27.1 C 17.08 g/m*3 27.1 C 11.3 km/h
469 13-08-2021 15:00:00 27 C 17.5 g/m*3 27 C 8.1 km/h
470 13-08-2021 15:05:00 26.9 C 17.15 g/m*3 26.9 C 9.7 km/h
471 13-08-2021 15:10:00 26.9 C 17.15 g/m*3 26.9 C 6.4 km/h
472 13-08-2021 15:15:00 26.9 C 17.4 g/m*3 26.9 C 6.4 km/h
473 13-08-2021 15:20:00 27 C 17.5 g/m*3 27 C 4.8 km/h
474 13-08-2021 15:25:00 26.9 C 17.4 g/m*3 26.9 C 9.7 km/h
475 13-08-2021 15:30:00 26.9 C 17.15 g/m*3 26.9 C 8.1 km/h
Sensor: Nr:Datum:Temp:Abs-Feuchte:Windchill:Wind:
Aussen-T/F 476 13-08-2021 15:35:00 26.9 C 17.15 g/m*3 26.9 C 8.1 km/h
477 13-08-2021 15:40:00 27 C 17.24 g/m*3 27 C 9.7 km/h
478 13-08-2021 15:45:00 27.1 C 17.34 g/m*3 27.1 C 9.7 km/h
479 13-08-2021 15:50:00 27.1 C 17.34 g/m*3 27.1 C 9.7 km/h
480 13-08-2021 15:55:00 27 C 17.24 g/m*3 27 C 12.9 km/h
481 13-08-2021 16:00:00 26.9 C 17.4 g/m*3 26.9 C 9.7 km/h
482 13-08-2021 16:05:00 26.7 C 17.21 g/m*3 26.7 C 12.9 km/h
483 13-08-2021 16:10:00 26.6 C 17.12 g/m*3 26.6 C 9.7 km/h
484 13-08-2021 16:15:00 26.4 C 16.93 g/m*3 26.4 C 8.1 km/h
485 13-08-2021 16:20:00 26.4 C 17.18 g/m*3 26.4 C 11.3 km/h
486 13-08-2021 16:25:00 26.4 C 17.18 g/m*3 26.4 C 11.3 km/h
487 13-08-2021 16:30:00 26.6 C 17.12 g/m*3 26.6 C 17.7 km/h
488 13-08-2021 16:35:00 26.8 C 17.31 g/m*3 26.8 C 11.3 km/h
489 13-08-2021 16:40:00 26.9 C 17.15 g/m*3 26.9 C 12.9 km/h
490 13-08-2021 16:45:00 26.8 C 16.8 g/m*3 26.8 C 11.3 km/h
491 13-08-2021 16:50:00 26.8 C 17.05 g/m*3 26.8 C 12.9 km/h
492 13-08-2021 16:55:00 27 C 16.73 g/m*3 27 C 12.9 km/h
493 13-08-2021 17:00:00 26.8 C 16.54 g/m*3 26.8 C 12.9 km/h
494 13-08-2021 17:05:00 26.6 C 16.36 g/m*3 26.6 C 14.5 km/h
495 13-08-2021 17:10:00 26.3 C 16.34 g/m*3 26.3 C 12.9 km/h
496 13-08-2021 17:15:00 26.3 C 16.34 g/m*3 26.3 C 11.3 km/h
497 13-08-2021 17:20:00 26.3 C 16.09 g/m*3 26.3 C 14.5 km/h
498 13-08-2021 17:25:00 26.1 C 15.91 g/m*3 26.1 C 9.7 km/h
499 13-08-2021 17:30:00 26 C 16.07 g/m*3 26 C 9.7 km/h
500 13-08-2021 17:35:00 26.1 C 16.4 g/m*3 26.1 C 9.7 km/h
Sensor: Nr:Datum:Temp:Abs-Feuchte:Windchill:Wind:
Aussen-T/F 501 13-08-2021 17:40:00 26.3 C 16.09 g/m*3 26.3 C 9.7 km/h
502 13-08-2021 17:45:00 26.4 C 16.18 g/m*3 26.4 C 9.7 km/h
503 13-08-2021 17:50:00 26.3 C 16.34 g/m*3 26.3 C 8.1 km/h
504 13-08-2021 17:55:00 26.2 C 16 g/m*3 26.2 C 6.4 km/h
505 13-08-2021 18:00:00 26.1 C 16.4 g/m*3 26.1 C 0 km/h
506 13-08-2021 18:05:00 26.1 C 16.89 g/m*3 26.1 C 3.2 km/h
507 13-08-2021 18:10:00 25.9 C 16.22 g/m*3 25.9 C 3.2 km/h
508 13-08-2021 18:15:00 25.9 C 16.22 g/m*3 25.9 C 3.2 km/h
509 13-08-2021 18:20:00 26 C 16.8 g/m*3 26 C 3.2 km/h
510 13-08-2021 18:25:00 25.9 C 16.95 g/m*3 25.9 C 3.2 km/h
511 13-08-2021 18:30:00 25.9 C 17.43 g/m*3 25.9 C 1.6 km/h
512 13-08-2021 18:35:00 25.8 C 16.61 g/m*3 25.8 C 0 km/h
513 13-08-2021 18:40:00 25.7 C 16.76 g/m*3 25.7 C 1.6 km/h
514 13-08-2021 18:45:00 25.6 C 15.95 g/m*3 25.6 C 9.7 km/h
515 13-08-2021 18:50:00 25.6 C 15.71 g/m*3 25.6 C 9.7 km/h
516 13-08-2021 18:55:00 25.6 C 15.71 g/m*3 25.6 C 9.7 km/h
517 13-08-2021 19:00:00 25.8 C 15.65 g/m*3 25.8 C 8.1 km/h
518 13-08-2021 19:05:00 25.9 C 15.49 g/m*3 25.9 C 8.1 km/h
519 13-08-2021 19:10:00 26.1 C 15.91 g/m*3 26.1 C 4.8 km/h
520 13-08-2021 19:15:00 26.2 C 16 g/m*3 26.2 C 6.4 km/h
521 13-08-2021 19:20:00 26.3 C 15.6 g/m*3 26.3 C 9.7 km/h
522 13-08-2021 19:25:00 26.3 C 15.6 g/m*3 26.3 C 6.4 km/h
523 13-08-2021 19:30:00 26.2 C 15.02 g/m*3 26.2 C 8.1 km/h
524 13-08-2021 19:35:00 26.1 C 15.42 g/m*3 26.1 C 8.1 km/h
525 13-08-2021 19:40:00 26 C 15.58 g/m*3 26 C 3.2 km/h
Sensor: Nr:Datum:Temp:Abs-Feuchte:Windchill:Wind:
Aussen-T/F 526 13-08-2021 19:45:00 25.9 C 15.01 g/m*3 25.9 C 9.7 km/h
527 13-08-2021 19:50:00 25.8 C 15.17 g/m*3 25.8 C 6.4 km/h
528 13-08-2021 19:55:00 25.7 C 15.08 g/m*3 25.7 C 8.1 km/h
529 13-08-2021 20:00:00 25.4 C 14.83 g/m*3 25.4 C 6.4 km/h
530 13-08-2021 20:05:00 25.3 C 14.98 g/m*3 25.3 C 4.8 km/h
531 13-08-2021 20:10:00 25.1 C 15.05 g/m*3 25.1 C 3.2 km/h
532 13-08-2021 20:15:00 24.9 C 15.11 g/m*3 24.9 C 3.2 km/h
533 13-08-2021 20:20:00 24.9 C 16.02 g/m*3 24.9 C 1.6 km/h
534 13-08-2021 20:25:00 24.8 C 16.39 g/m*3 24.8 C 0 km/h
535 13-08-2021 20:30:00 24.4 C 16.02 g/m*3 24.4 C 0 km/h
536 13-08-2021 20:35:00 24.1 C 15.97 g/m*3 24.1 C 1.6 km/h
537 13-08-2021 20:40:00 23.5 C 15.65 g/m*3 23.5 C 1.6 km/h
538 13-08-2021 20:45:00 23 C 15.62 g/m*3 23 C 0 km/h
539 13-08-2021 20:50:00 22.6 C 15.47 g/m*3 22.6 C 3.2 km/h
540 13-08-2021 20:55:00 22.2 C 15.31 g/m*3 22.2 C 0 km/h
541 13-08-2021 21:00:00 21.8 C 15.16 g/m*3 21.8 C 0 km/h
542 13-08-2021 21:05:00 21.5 C 15.09 g/m*3 21.5 C 0 km/h
543 13-08-2021 21:10:00 21.2 C 15.01 g/m*3 21.2 C 3.2 km/h
544 13-08-2021 21:15:00 20.9 C 14.93 g/m*3 20.9 C 4.8 km/h
545 13-08-2021 21:20:00 20.8 C 14.85 g/m*3 20.8 C 4.8 km/h
546 13-08-2021 21:25:00 20.6 C 14.86 g/m*3 20.6 C 4.8 km/h
547 13-08-2021 21:30:00 20.4 C 14.68 g/m*3 20.4 C 4.8 km/h
548 13-08-2021 21:35:00 20.3 C 14.77 g/m*3 20.3 C 6.4 km/h
549 13-08-2021 21:40:00 20.1 C 14.6 g/m*3 20.1 C 6.4 km/h
550 13-08-2021 21:45:00 20 C 14.69 g/m*3 20 C 4.8 km/h
Sensor: Nr:Datum:Temp:Abs-Feuchte:Windchill:Wind:
Aussen-T/F 551 13-08-2021 21:50:00 19.8 C 14.52 g/m*3 19.8 C 6.4 km/h
552 13-08-2021 21:55:00 19.7 C 14.43 g/m*3 19.7 C 6.4 km/h
553 13-08-2021 22:00:00 19.7 C 14.6 g/m*3 19.7 C 1.6 km/h
554 13-08-2021 22:05:00 19.6 C 14.52 g/m*3 19.6 C 0 km/h
555 13-08-2021 22:10:00 19.4 C 14.35 g/m*3 19.4 C 1.6 km/h
556 13-08-2021 22:15:00 19.3 C 14.43 g/m*3 19.3 C 3.2 km/h
557 13-08-2021 22:20:00 19.2 C 14.35 g/m*3 19.2 C 0 km/h
558 13-08-2021 22:25:00 19.1 C 14.26 g/m*3 19.1 C 0 km/h
559 13-08-2021 22:30:00 18.9 C 14.09 g/m*3 18.9 C 0 km/h
560 13-08-2021 22:35:00 18.8 C 14.17 g/m*3 18.8 C 0 km/h
561 13-08-2021 22:40:00 18.7 C 14.09 g/m*3 18.7 C 0 km/h
562 13-08-2021 22:45:00 18.6 C 14.01 g/m*3 18.6 C 0 km/h
563 13-08-2021 22:50:00 18.4 C 14 g/m*3 18.4 C 0 km/h
564 13-08-2021 22:55:00 18.3 C 13.76 g/m*3 18.3 C 0 km/h
565 13-08-2021 23:00:00 18.2 C 13.83 g/m*3 18.2 C 0 km/h
566 13-08-2021 23:05:00 18.1 C 13.75 g/m*3 18.1 C 0 km/h
567 13-08-2021 23:10:00 18 C 13.67 g/m*3 18 C 0 km/h
568 13-08-2021 23:15:00 17.9 C 13.74 g/m*3 17.9 C 0 km/h
569 13-08-2021 23:20:00 17.8 C 13.66 g/m*3 17.8 C 0 km/h
570 13-08-2021 23:25:00 17.8 C 13.66 g/m*3 17.8 C 1.6 km/h
571 13-08-2021 23:30:00 17.8 C 13.81 g/m*3 17.8 C 0 km/h
572 13-08-2021 23:35:00 17.8 C 13.66 g/m*3 17.8 C 0 km/h
573 13-08-2021 23:40:00 17.7 C 13.73 g/m*3 17.7 C 0 km/h
574 13-08-2021 23:45:00 17.6 C 13.65 g/m*3 17.6 C 0 km/h
575 13-08-2021 23:50:00 17.6 C 13.65 g/m*3 17.6 C 0 km/h
Sensor: Nr:Datum:Temp:Abs-Feuchte:Windchill:Wind:
Aussen-T/F 576 13-08-2021 23:55:00 17.5 C 13.57 g/m*3 17.5 C 0 km/h

Legende:
   Min
   Max


Maximal/Minimal-Werte vom 17.04.2019 - 19.05.2019

Sensor Min Max Avg
Temp
(Aussen-T/F)
2.2 °C
13-05-2019  06:50:00
26.6 °C
24-04-2019  17:05:00
11.51 °C

Die Daten stammen von einer Davis Vantage Pro 2 Wetter-Station und werden unter Linux mit der Software wview2wettercgi und aufbereitet. Alle Angaben erfolgen ohne Gewähr für ihre Vollständigkeit oder Richtigkeit.
Kontakt: Rainer Krienke krienke@uni-koblenz.de . Meine Webseiten an der Uni Koblenz oder privat.
Version: $Revision: 0.78 $